INFORMACIÓN METAR y TAF
METAR FOR LIPE
ADDS - METARS form results

(1930 UTC 17 November 2019)
Data provider http://aviationweather.gov/metar/data/
 
METAR text: LIPE 171920Z 23003KT 6000 SCT005 BKN010 07/07 Q1007
Conditions at: LIPE (BOLOGNA/BORGO (A, IT) observed 1920 UTC 17 November 2019
Temperature: 7.0°C (45°F)
Dewpoint: 7.0°C (45°F) [RH = 100%]
Pressure (altimeter): 29.73 inches Hg (1007.0 mb)
Winds: from the SW (230 degrees) at 3 MPH (3 knots; 1.5 m/s)
Visibility: 4 miles ( 6 km)
Ceiling: 1000 feet AGL
Clouds: scattered clouds at 500 feet AGL
broken clouds at 1000 feet AGL
Weather: no significant weather observed at this time

METAR text: LIPE 171850Z VRB01KT 8000 R12/0650V0800D R30/0900VP1500U MIFG NSC 06/05 Q1006
Conditions at: LIPE (BOLOGNA/BORGO (A, IT) observed 1850 UTC 17 November 2019
Temperature: 6.0°C (43°F)
Dewpoint: 5.0°C (41°F) [RH = 93%]
Pressure (altimeter): 29.70 inches Hg (1006.0 mb)
Winds: variable direction winds at 1 MPH (1 knots; 0.5 m/s)
Visibility: 5 miles ( 8 km)
Ceiling: at least 12,000 feet AGL
Clouds: sky clear below 12,000 feet AGL
Weather: MIFG  (shallow fog)

Forecast for: LIPE (BOLOGNA/BORGO (A, IT)
Text: TAF LIPE 171700Z 1718/1818 VRB05KT 9999 SCT050
Forecast period: 1800 UTC 17 November 2019 to 1800 UTC 18 November 2019
Forecast type: FROM: standard forecast or significant change
Winds: variable direction winds at 6 MPH (5 knots; 2.6 m/s)
Visibility: 6 or more miles 10+ km)
Ceiling: at least 12,000 feet AGL
Clouds: scattered clouds at 5000 feet AGL
Weather: no significant weather forecast for this period
Text: TEMPO 1814/1818 4000 RA
Forecast period: 1400 to 1800 UTC 18 November 2019
Forecast type: TEMPORARY: The following changes expected for less than half the time period
Visibility: 2.49 miles (4.01 km)
Ceiling: unknown
Clouds: missing
Weather: RA  (moderate rain)

 MAPA DE AEROPUERTO

 INFORMACIÓN DE PISTA
Pista 12 Longitud 9186 ft Ancho 150 ft
Elevación 120 ft Umbral desplazado 1007 ft Rumbo de pista 117
Pista 30 Longitud 9186 ft Ancho 150 ft
Elevación 120 ft Umbral desplazado 1188 ft Rumbo de pista 297

 FRECUANCIAS DEL AEROPUERTO
Tipo APP Nombre APP Frecuencia 120.1 MHZ
Tipo ATIS Nombre ATIS Frecuencia 134.875 MHZ
Tipo GND Nombre GND Frecuencia 129.925 MHZ
Tipo TWR Nombre TWR Frecuencia 120.8 MHZ

 RADIO AYUDAS DEL AEROPUERTO
Tipo VOR-DME Nombre Bologna Frecuencia 112200 KHZ
Tipo NDB Nombre Bologna Frecuencia 413 KHZ



Powered by Virtual Airlines Manager [v2.6.2]